Time;durP1;ratioP1;P1;durP2;ratioP2;P2;SDS_P1;SDS_P2;PMS_P1;PMS_P2;Temp;Humidity;BMP_temperature;BMP_pressure;BME280_temperature;BME280_humidity;BME280_pressure;Samples;Min_cycle;Max_cycle;Signal;HPM_P1;HPM_P2
2022/10/23 00:00:44;;;;;;;;;;;;;;;14.36;100.00;100234.88;3057775;19;20266;-50
2022/10/23 00:01:49;;;;;;;;;;;;;;;14.35;100.00;100229.63;3057622;19;19934;-50
2022/10/23 00:02:52;;;;;;;;;;;;;;;14.34;100.00;100226.06;3057753;19;19929;-50
2022/10/23 00:04:03;;;;;;;;;;;;;;;14.34;100.00;100219.84;3057825;19;19947;-50
2022/10/23 00:05:05;;;;;;;;;;;;;;;14.36;100.00;100229.50;3057796;19;20361;-50
2022/10/23 00:06:10;;;;;;;;;;;;;;;14.35;100.00;100227.78;3058071;19;19929;-50
2022/10/23 00:07:12;;;;;;;;;;;;;;;14.35;100.00;100233.16;3056339;19;19926;-49
2022/10/23 00:08:16;;;;;;;;;;;;;;;14.31;100.00;100230.81;3057967;19;19958;-50
2022/10/23 00:09:25;;;;;;;;;;;;;;;14.32;100.00;100233.41;3057530;19;19922;-50
2022/10/23 00:10:28;;;;;;;;;;;;;;;14.33;100.00;100243.16;3058626;19;19926;-51
2022/10/23 00:11:32;;;;;;;;;;;;;;;14.29;100.00;100236.31;3057773;19;19918;-49
2022/10/23 00:12:34;;;;;;;;;;;;;;;14.32;100.00;100237.91;3058285;19;20342;-50
2022/10/23 00:13:39;;;;;;;;;;;;;;;14.35;100.00;100237.66;3057753;19;19923;-50
2022/10/23 00:14:41;;;;;;;;;;;;;;;14.37;100.00;100238.38;3058391;19;20544;-50
2022/10/23 00:15:45;;;;;;;;;;;;;;;14.35;100.00;100232.28;3058086;19;20558;-51
2022/10/23 00:16:47;;;;;;;;;;;;;;;14.38;100.00;100242.75;3056748;19;19967;-50
2022/10/23 00:17:52;;;;;;;;;;;;;;;14.39;100.00;100244.47;3057982;19;19915;-51
2022/10/23 00:18:53;;;;;;;;;;;;;;;14.39;100.00;100231.03;3058276;19;19923;-50
2022/10/23 00:19:58;;;;;;;;;;;;;;;14.41;100.00;100239.88;3057761;19;20345;-50
2022/10/23 00:21:00;;;;;;;;;;;;;;;14.41;100.00;100247.91;3057542;19;19942;-50
2022/10/23 00:22:04;;;;;;;;;;;;;;;14.40;100.00;100241.69;3057411;19;20331;-50
2022/10/23 00:23:06;;;;;;;;;;;;;;;14.42;100.00;100246.94;3057843;19;19923;-50
2022/10/23 00:24:10;;;;;;;;;;;;;;;14.40;100.00;100233.66;3057601;19;19919;-50
2022/10/23 00:25:12;;;;;;;;;;;;;;;14.44;100.00;100246.81;3057826;19;19952;-50
2022/10/23 00:26:17;;;;;;;;;;;;;;;14.43;100.00;100248.66;3057300;19;19919;-50
2022/10/23 00:27:19;;;;;;;;;;;;;;;14.44;100.00;100247.69;3056615;19;19943;-50
2022/10/23 00:28:23;;;;;;;;;;;;;;;14.44;100.00;100246.81;3057780;19;19994;-50
2022/10/23 00:29:26;;;;;;;;;;;;;;;14.45;100.00;100254.75;3057679;19;19919;-50
2022/10/23 00:30:31;;;;;;;;;;;;;;;14.44;100.00;100247.69;3056431;19;19919;-50
2022/10/23 00:31:33;;;;;;;;;;;;;;;14.45;100.00;100254.75;3056618;19;20437;-50
2022/10/23 00:32:37;;;;;;;;;;;;;;;14.48;100.00;100259.03;3057343;19;20014;-51
2022/10/23 00:33:39;;;;;;;;;;;;;;;14.47;100.00;100255.50;3057768;19;19926;-50
2022/10/23 00:34:43;;;;;;;;;;;;;;;14.47;100.00;100260.00;3057850;19;19918;-50
2022/10/23 00:35:46;;;;;;;;;;;;;;;14.46;100.00;100256.47;3057850;19;19934;-50
2022/10/23 00:36:50;;;;;;;;;;;;;;;14.47;100.00;100254.63;3057577;19;19940;-49
2022/10/23 00:37:52;;;;;;;;;;;;;;;14.47;100.00;100263.56;3057504;19;19922;-50
2022/10/23 00:38:56;;;;;;;;;;;;;;;14.48;100.00;100264.41;3057205;19;19922;-50
2022/10/23 00:39:58;;;;;;;;;;;;;;;14.47;100.00;100262.69;3056921;19;19923;-50
2022/10/23 00:41:02;;;;;;;;;;;;;;;14.45;100.00;100264.66;3056066;19;19942;-50
2022/10/23 00:42:04;;;;;;;;;;;;;;;14.46;100.00;100267.22;3056115;19;19915;-50
2022/10/23 00:43:09;;;;;;;;;;;;;;;14.45;100.00;100265.50;3055736;19;19984;-50
2022/10/23 00:44:33;;;;;;;;;;;;;;;14.46;100.00;100269.03;3056486;19;19910;-50
2022/10/23 00:45:37;;;;;;;;;;;;;;;14.45;100.00;100265.50;3056581;19;19919;-50
2022/10/23 00:46:39;;;;;;;;;;;;;;;14.46;100.00;100267.22;3057230;19;19923;-50
2022/10/23 00:47:43;;;;;;;;;;;;;;;14.44;100.00;100258.41;3056496;19;19926;-50
2022/10/23 00:48:45;;;;;;;;;;;;;;;14.43;100.00;100272.81;3057163;19;20365;-50
2022/10/23 00:49:50;;;;;;;;;;;;;;;14.44;100.00;100269.16;3056475;19;20512;-49
2022/10/23 00:50:51;;;;;;;;;;;;;;;14.43;100.00;100264.75;3056195;19;19923;-50
2022/10/23 00:51:59;;;;;;;;;;;;;;;14.45;100.00;100265.50;3056404;19;19926;-50
2022/10/23 00:53:01;;;;;;;;;;;;;;;14.44;100.00;100269.16;3056257;19;19943;-50
2022/10/23 00:54:06;;;;;;;;;;;;;;;14.46;100.00;100272.56;3056236;19;19922;-50
2022/10/23 00:55:25;;;;;;;;;;;;;;;14.47;100.00;100266.22;3056230;19;20314;-50
2022/10/23 00:56:29;;;;;;;;;;;;;;;14.45;100.00;100270.00;3055907;19;20420;-50
2022/10/23 00:57:31;;;;;;;;;;;;;;;14.47;100.00;100271.59;3057378;19;19923;-57
2022/10/23 00:58:36;;;;;;;;;;;;;;;14.48;100.00;100276.00;3056445;19;19935;-50
2022/10/23 00:59:38;;;;;;;;;;;;;;;14.46;100.00;100277.94;3056263;19;19943;-50
2022/10/23 01:00:44;;;;;;;;;;;;;;;14.48;100.00;100278.69;3057216;19;19915;-50
2022/10/23 01:01:47;;;;;;;;;;;;;;;14.47;100.00;100276.97;3057180;19;19940;-50
2022/10/23 01:02:51;;;;;;;;;;;;;;;14.51;100.00;100275.72;3056463;19;20276;-50
2022/10/23 01:03:53;;;;;;;;;;;;;;;14.50;100.00;100279.38;3056009;19;19923;-50
2022/10/23 01:04:58;;;;;;;;;;;;;;;14.52;100.00;100287.31;3056498;19;19918;-50
2022/10/23 01:06:06;;;;;;;;;;;;;;;14.53;100.00;100287.19;3056063;19;19950;-50
2022/10/23 01:07:16;;;;;;;;;;;;;;;14.48;100.00;100276.00;3056188;19;20175;-50
2022/10/23 01:08:22;;;;;;;;;;;;;;;14.50;100.00;100289.28;3056128;19;20315;-50
2022/10/23 01:09:34;;;;;;;;;;;;;;;14.53;100.00;100283.66;3055989;19;20306;-50
2022/10/23 01:10:44;;;;;;;;;;;;;;;14.53;100.00;100283.66;3055957;19;20258;-50
2022/10/23 01:11:53;;;;;;;;;;;;;;;14.51;100.00;100286.47;3056219;19;19922;-50
2022/10/23 01:13:13;;;;;;;;;;;;;;;14.53;100.00;100295.25;3056496;19;19919;-50
2022/10/23 01:14:25;;;;;;;;;;;;;;;14.51;100.00;100293.66;3056191;19;19938;-50
2022/10/23 01:15:46;;;;;;;;;;;;;;;14.51;100.00;100294.53;3055950;19;19922;-50
2022/10/23 01:16:59;;;;;;;;;;;;;;;14.52;100.00;100288.19;3056200;19;19919;-50
2022/10/23 01:18:08;;;;;;;;;;;;;;;14.55;100.00;100290.63;3055965;19;19938;-50
2022/10/23 01:19:12;;;;;;;;;;;;;;;14.55;100.00;100285.25;3056252;19;20289;-50
2022/10/23 01:20:17;;;;;;;;;;;;;;;14.57;100.00;100290.50;3056720;19;19914;-50
2022/10/23 01:21:19;;;;;;;;;;;;;;;14.57;100.00;100290.50;3056567;19;19943;-51
2022/10/23 01:22:29;;;;;;;;;;;;;;;14.58;100.00;100282.31;3056463;19;19931;-50
2022/10/23 01:23:31;;;;;;;;;;;;;;;14.55;100.00;100298.69;3056375;19;19925;-51
2022/10/23 01:24:38;;;;;;;;;;;;;;;14.57;100.00;100295.88;3056226;19;20255;-50
2022/10/23 01:25:43;;;;;;;;;;;;;;;14.60;100.00;100293.81;3055569;19;19921;-50
2022/10/23 01:26:52;;;;;;;;;;;;;;;14.62;100.00;100297.19;3055719;19;19936;-50
2022/10/23 01:28:04;;;;;;;;;;;;;;;14.59;100.00;100294.78;3055401;19;20338;-50
2022/10/23 01:29:08;;;;;;;;;;;;;;;14.59;100.00;100296.59;3053731;19;19942;-50
2022/10/23 01:30:11;;;;;;;;;;;;;;;14.62;100.00;100294.50;3055990;19;20019;-50
2022/10/23 01:31:20;;;;;;;;;;;;;;;14.63;100.00;100296.22;3055642;19;19931;-50
2022/10/23 01:32:37;;;;;;;;;;;;;;;14.62;100.00;100282.91;3055952;19;20398;-49
2022/10/23 01:33:46;;;;;;;;;;;;;;;14.64;100.00;100289.88;3055943;19;19957;-50
2022/10/23 01:35:02;;;;;;;;;;;;;;;14.60;100.00;100291.13;3055546;19;19919;-50
2022/10/23 01:36:07;;;;;;;;;;;;;;;14.64;100.00;100297.06;3055542;19;19946;-50
2022/10/23 01:37:10;;;;;;;;;;;;;;;14.62;100.00;100283.75;3055808;19;19933;-50
2022/10/23 01:38:22;;;;;;;;;;;;;;;14.66;100.00;100282.53;3055985;19;20018;-50
2022/10/23 01:39:26;;;;;;;;;;;;;;;14.67;100.00;100286.94;3056868;19;19990;-50
2022/10/23 01:40:46;;;;;;;;;;;;;;;14.65;100.00;100286.19;3055663;19;19922;-50
2022/10/23 01:41:52;;;;;;;;;;;;;;;14.65;100.00;100294.25;3055788;19;19939;-50
2022/10/23 01:43:04;;;;;;;;;;;;;;;14.68;100.00;100302.06;3054968;19;20338;-50
2022/10/23 01:44:16;;;;;;;;;;;;;;;14.67;100.00;100295.00;3056040;19;19919;-50
2022/10/23 01:45:23;;;;;;;;;;;;;;;14.69;100.00;100295.72;3055517;19;19926;-50
2022/10/23 01:46:25;;;;;;;;;;;;;;;14.69;100.00;100294.88;3055637;19;20323;-50
2022/10/23 01:47:30;;;;;;;;;;;;;;;14.71;100.00;100292.91;3055434;19;19918;-51
2022/10/23 01:48:38;;;;;;;;;;;;;;;14.72;100.00;100295.50;3054972;19;20301;-50
2022/10/23 01:49:43;;;;;;;;;;;;;;;14.69;100.00;100300.25;3055441;19;19931;-50
2022/10/23 01:50:45;;;;;;;;;;;;;;;14.69;100.00;100301.09;3055477;19;19942;-50
2022/10/23 01:51:51;;;;;;;;;;;;;;;14.70;100.00;100302.81;3055561;19;19926;-49
2022/10/23 01:52:53;;;;;;;;;;;;;;;14.71;100.00;100303.66;3055401;19;19919;-50
2022/10/23 01:53:57;;;;;;;;;;;;;;;14.71;100.00;100298.28;3055376;19;19923;-50
2022/10/23 01:55:00;;;;;;;;;;;;;;;14.71;100.00;100301.84;3055391;19;20086;-50
2022/10/23 01:56:08;;;;;;;;;;;;;;;14.72;100.00;100300.00;3055493;19;19923;-50
2022/10/23 01:57:10;;;;;;;;;;;;;;;14.68;100.00;100302.06;3055636;19;19947;-50
2022/10/23 01:58:15;;;;;;;;;;;;;;;14.67;100.00;100308.41;3052457;19;19922;-50
2022/10/23 01:59:19;;;;;;;;;;;;;;;14.68;100.00;100307.44;3055548;19;19918;-50
2022/10/23 02:00:23;;;;;;;;;;;;;;;14.69;100.00;100306.47;3055238;19;19914;-50
2022/10/23 02:01:25;;;;;;;;;;;;;;;14.68;100.00;100307.44;3055449;19;19938;-50
2022/10/23 02:02:30;;;;;;;;;;;;;;;14.67;100.00;100303.06;3055137;19;20330;-50
2022/10/23 02:03:32;;;;;;;;;;;;;;;14.66;100.00;100301.34;3055638;19;19919;-50
2022/10/23 02:04:40;;;;;;;;;;;;;;;14.69;100.00;100306.47;3055061;19;19919;-49
2022/10/23 02:05:42;;;;;;;;;;;;;;;14.69;100.00;100301.09;3055277;19;19919;-50
2022/10/23 02:06:47;;;;;;;;;;;;;;;14.70;100.00;100312.69;3055233;19;20371;-50
2022/10/23 02:07:49;;;;;;;;;;;;;;;14.62;100.00;100305.25;3055377;19;20390;-50
2022/10/23 02:08:53;;;;;;;;;;;;;;;14.64;100.00;100307.81;3054447;19;20227;-50
2022/10/23 02:09:55;;;;;;;;;;;;;;;14.66;100.00;100312.09;3055428;19;20476;-50
2022/10/23 02:11:10;;;;;;;;;;;;;;;14.65;100.00;100309.53;3055848;19;19939;-50
2022/10/23 02:12:13;;;;;;;;;;;;;;;14.67;100.00;100308.41;3055151;19;19923;-50
2022/10/23 02:13:20;;;;;;;;;;;;;;;14.66;100.00;100316.59;3055425;19;19995;-50
2022/10/23 02:14:24;;;;;;;;;;;;;;;14.68;100.00;100315.50;3054943;19;19927;-50
2022/10/23 02:15:39;;;;;;;;;;;;;;;14.69;100.00;100311.00;3055198;19;20512;-50
2022/10/23 02:16:42;;;;;;;;;;;;;;;14.68;100.00;100310.13;3054891;19;20343;-50
2022/10/23 02:17:47;;;;;;;;;;;;;;;14.70;100.00;100312.69;3055291;19;19923;-50
2022/10/23 02:18:58;;;;;;;;;;;;;;;14.71;100.00;100320.63;3055077;19;19919;-50
2022/10/23 02:20:11;;;;;;;;;;;;;;;14.72;100.00;100322.34;3055134;19;19919;-50
2022/10/23 02:21:14;;;;;;;;;;;;;;;14.73;100.00;100318.66;3055334;19;19939;-50
2022/10/23 02:22:24;;;;;;;;;;;;;;;14.71;100.00;100326.00;3055072;19;20218;-50
2022/10/23 02:23:26;;;;;;;;;;;;;;;14.72;100.00;100322.34;3054710;19;20327;-50
2022/10/23 02:24:33;;;;;;;;;;;;;;;14.70;100.00;100321.63;3055999;19;20003;-50
2022/10/23 02:25:38;;;;;;;;;;;;;;;14.69;100.00;100327.97;3054884;19;19947;-50
2022/10/23 02:27:03;;;;;;;;;;;;;;;14.64;100.00;100324.78;3054505;19;20294;-50
2022/10/23 02:28:06;;;;;;;;;;;;;;;14.66;100.00;100325.50;3055609;19;19926;-50
2022/10/23 02:29:20;;;;;;;;;;;;;;;14.66;100.00;100328.19;3054385;19;19946;-50
2022/10/23 02:30:22;;;;;;;;;;;;;;;14.66;100.00;100328.19;3055646;19;20035;-50
2022/10/23 02:31:42;;;;;;;;;;;;;;;14.67;100.00;100324.53;3054907;19;20415;-50
2022/10/23 02:32:45;;;;;;;;;;;;;;;14.67;100.00;100329.91;3055174;19;20330;-50
2022/10/23 02:33:50;;;;;;;;;;;;;;;14.67;100.00;100332.59;3055031;19;19919;-50
2022/10/23 02:34:54;;;;;;;;;;;;;;;14.69;100.00;100333.34;3055124;19;19915;-50
2022/10/23 02:35:56;;;;;;;;;;;;;;;14.68;100.00;100333.44;3054589;19;19942;-50
2022/10/23 02:37:00;;;;;;;;;;;;;;;14.67;100.00;100337.97;3055137;19;20039;-50
2022/10/23 02:38:02;;;;;;;;;;;;;;;14.68;100.00;100341.50;3054514;19;19915;-50
2022/10/23 02:39:09;;;;;;;;;;;;;;;14.68;100.00;100347.75;3055001;19;20338;-50
2022/10/23 02:40:11;;;;;;;;;;;;;;;14.70;100.00;100344.94;3054751;19;20393;-50
2022/10/23 02:41:25;;;;;;;;;;;;;;;14.70;100.00;100339.56;3054809;19;19919;-50
2022/10/23 02:42:32;;;;;;;;;;;;;;;14.72;100.00;100333.09;3054953;19;19921;-50
2022/10/23 02:43:39;;;;;;;;;;;;;;;14.71;100.00;100342.13;3053947;19;19932;-50
2022/10/23 02:45:01;;;;;;;;;;;;;;;14.65;100.00;100334.56;3054909;19;20334;-50
2022/10/23 02:46:13;;;;;;;;;;;;;;;14.72;100.00;100338.47;3054794;19;19946;-51
2022/10/23 02:47:21;;;;;;;;;;;;;;;14.72;100.00;100338.47;3054959;19;19918;-50
2022/10/23 02:48:25;;;;;;;;;;;;;;;14.71;100.00;100336.75;3054714;19;19975;-50
2022/10/23 02:49:37;;;;;;;;;;;;;;;14.73;100.00;100344.69;3054242;19;20338;-50
2022/10/23 02:50:49;;;;;;;;;;;;;;;14.74;100.00;100341.00;3054883;19;19925;-50
2022/10/23 02:51:54;;;;;;;;;;;;;;;14.72;100.00;100338.47;3054840;19;19923;-50
2022/10/23 02:53:14;;;;;;;;;;;;;;;14.72;100.00;100342.97;3055007;19;19918;-50
2022/10/23 02:54:42;;;;;;;;;;;;;;;14.70;100.00;100342.25;3054644;19;20338;-50
2022/10/23 02:56:16;;;;;;;;;;;;;;;14.69;100.00;100349.44;3055051;19;19927;-50
2022/10/23 02:57:18;;;;;;;;;;;;;;;14.69;100.00;100352.13;3054659;19;19932;-50
2022/10/23 02:58:30;;;;;;;;;;;;;;;14.68;100.00;100355.78;3054681;19;19926;-50
2022/10/23 02:59:35;;;;;;;;;;;;;;;14.68;100.00;100347.75;3054911;19;20023;-50
2022/10/23 03:00:40;;;;;;;;;;;;;;;14.69;100.00;100346.75;3054363;19;20399;-50
2022/10/23 03:01:51;;;;;;;;;;;;;;;14.69;100.00;100341.41;3054663;19;20277;-50
2022/10/23 03:03:01;;;;;;;;;;;;;;;14.70;100.00;100340.41;3054591;19;19955;-50
2022/10/23 03:04:07;;;;;;;;;;;;;;;14.71;100.00;100352.00;3054941;19;19922;-50
2022/10/23 03:05:13;;;;;;;;;;;;;;;14.72;100.00;100351.03;3054725;19;19948;-51
2022/10/23 03:06:15;;;;;;;;;;;;;;;14.71;100.00;100346.66;3054419;19;20318;-51
2022/10/23 03:07:20;;;;;;;;;;;;;;;14.71;100.00;100347.50;3054186;19;19919;-50
2022/10/23 03:08:24;;;;;;;;;;;;;;;14.70;100.00;100340.41;3054540;19;19946;-50
2022/10/23 03:09:26;;;;;;;;;;;;;;;14.71;100.00;100347.50;3054128;19;20344;-50
2022/10/23 03:10:30;;;;;;;;;;;;;;;14.72;100.00;100338.47;3054592;19;19929;-50
2022/10/23 03:11:32;;;;;;;;;;;;;;;14.75;100.00;100346.25;3055608;19;20043;-50
2022/10/23 03:12:36;;;;;;;;;;;;;;;14.73;100.00;100344.69;3055382;19;19915;-50
2022/10/23 03:13:42;;;;;;;;;;;;;;;14.72;100.00;100342.97;3054652;19;19934;-50
2022/10/23 03:14:44;;;;;;;;;;;;;;;14.71;100.00;100341.28;3054515;19;19927;-50
2022/10/23 03:15:48;;;;;;;;;;;;;;;14.68;100.00;100347.75;3054658;19;19921;-50
2022/10/23 03:16:50;;;;;;;;;;;;;;;14.61;100.00;100351.88;3054414;19;20401;-50
2022/10/23 03:17:54;;;;;;;;;;;;;;;14.62;100.00;100348.22;3054766;19;19967;-50
2022/10/23 03:18:56;;;;;;;;;;;;;;;14.61;100.00;100345.69;3054715;19;19940;-50
2022/10/23 03:20:01;;;;;;;;;;;;;;;14.59;100.00;100348.50;3054724;19;19911;-50
2022/10/23 03:21:03;;;;;;;;;;;;;;;14.55;100.00;100356.91;3054247;19;19919;-50
2022/10/23 03:22:10;;;;;;;;;;;;;;;14.52;100.00;100347.25;3054314;19;19931;-50
2022/10/23 03:23:12;;;;;;;;;;;;;;;14.53;100.00;100353.47;3054387;19;19919;-50
2022/10/23 03:24:17;;;;;;;;;;;;;;;14.52;100.00;100352.63;3054734;19;20027;-50
2022/10/23 03:25:21;;;;;;;;;;;;;;;14.51;100.00;100356.28;3054224;19;20482;-50
2022/10/23 03:26:23;;;;;;;;;;;;;;;14.50;100.00;100353.72;3054627;19;20342;-50
2022/10/23 03:27:27;;;;;;;;;;;;;;;14.47;100.00;100360.22;3055090;19;20597;-50
2022/10/23 03:28:53;;;;;;;;;;;;;;;14.46;100.00;100346.91;3054840;19;19922;-50
2022/10/23 03:29:56;;;;;;;;;;;;;;;14.46;100.00;100363.88;3052908;19;19914;-50
2022/10/23 03:31:01;;;;;;;;;;;;;;;14.46;100.00;100358.50;3054365;19;19923;-50
2022/10/23 03:32:03;;;;;;;;;;;;;;;14.47;100.00;100356.66;3054262;19;19919;-50
2022/10/23 03:33:07;;;;;;;;;;;;;;;14.47;100.00;100354.84;3054544;19;19923;-50
2022/10/23 03:34:10;;;;;;;;;;;;;;;14.46;100.00;100358.50;3054333;19;19990;-50
2022/10/23 03:35:16;;;;;;;;;;;;;;;14.46;100.00;100357.66;3054485;19;20634;-50
2022/10/23 03:36:21;;;;;;;;;;;;;;;14.46;100.00;100347.75;3053639;19;19962;-50
2022/10/23 03:37:23;;;;;;;;;;;;;;;14.46;100.00;100355.81;3054982;19;19931;-50
2022/10/23 03:38:28;;;;;;;;;;;;;;;14.46;100.00;100352.28;3054301;19;20272;-50
2022/10/23 03:39:30;;;;;;;;;;;;;;;14.45;100.00;100350.56;3054258;19;19951;-50
2022/10/23 03:40:34;;;;;;;;;;;;;;;14.45;100.00;100354.09;3054142;19;19919;-50
2022/10/23 03:41:36;;;;;;;;;;;;;;;14.44;100.00;100354.22;3054050;19;19940;-50
2022/10/23 03:42:41;;;;;;;;;;;;;;;14.44;100.00;100360.44;3054353;19;19933;-50
2022/10/23 03:43:45;;;;;;;;;;;;;;;14.44;100.00;100355.06;3054281;19;19930;-50
2022/10/23 03:44:50;;;;;;;;;;;;;;;14.42;100.00;100354.34;3055143;19;19926;-50
2022/10/23 03:45:53;;;;;;;;;;;;;;;14.37;100.00;100354.66;3053865;19;20099;-50
2022/10/23 03:47:00;;;;;;;;;;;;;;;14.33;100.00;100357.72;3054263;19;19982;-50
2022/10/23 03:48:01;;;;;;;;;;;;;;;14.31;100.00;100365.03;3054095;19;19939;-50
2022/10/23 03:49:08;;;;;;;;;;;;;;;14.27;100.00;100368.94;3054653;19;19922;-50
2022/10/23 03:50:10;;;;;;;;;;;;;;;14.22;100.00;100365.78;3053333;19;20330;-50
2022/10/23 03:51:15;;;;;;;;;;;;;;;14.15;100.00;100370.75;3053897;19;19975;-50
2022/10/23 03:52:16;;;;;;;;;;;;;;;14.11;100.00;100368.44;3055340;19;19943;-50
2022/10/23 03:53:21;;;;;;;;;;;;;;;14.02;100.00;100360.13;3058332;19;19915;-50
2022/10/23 03:54:23;;;;;;;;;;;;;;;13.98;100.00;100368.56;3057346;19;19946;-50
2022/10/23 03:55:28;;;;;;;;;;;;;;;13.93;100.00;100368.91;3057716;19;19918;-51
2022/10/23 03:56:30;;;;;;;;;;;;;;;13.91;100.00;100368.16;3058348;19;19926;-50
2022/10/23 03:57:35;;;;;;;;;;;;;;;13.89;100.00;100375.47;3057855;19;20010;-50
2022/10/23 03:58:37;;;;;;;;;;;;;;;13.88;100.00;100379.16;3057226;19;19930;-50
2022/10/23 03:59:43;;;;;;;;;;;;;;;13.89;100.00;100375.47;3057512;19;19976;-50
2022/10/23 04:00:45;;;;;;;;;;;;;;;13.91;100.00;100378.88;3057032;19;19922;-50
2022/10/23 04:01:49;;;;;;;;;;;;;;;13.93;100.00;100379.63;3057639;19;19923;-50
2022/10/23 04:02:51;;;;;;;;;;;;;;;13.94;100.00;100384.03;3057446;19;20279;-50
2022/10/23 04:03:56;;;;;;;;;;;;;;;13.94;100.00;100383.16;3057167;19;20255;-50
2022/10/23 04:04:59;;;;;;;;;;;;;;;13.93;100.00;100387.66;3057045;19;19936;-50
2022/10/23 04:06:05;;;;;;;;;;;;;;;13.95;100.00;100380.38;3057397;19;20341;-50
2022/10/23 04:07:07;;;;;;;;;;;;;;;13.94;100.00;100388.53;3057433;19;20078;-50
2022/10/23 04:08:12;;;;;;;;;;;;;;;13.93;100.00;100386.81;3057580;19;19918;-50
2022/10/23 04:09:25;;;;;;;;;;;;;;;13.92;100.00;100385.97;3057132;19;20442;-50
2022/10/23 04:10:27;;;;;;;;;;;;;;;13.91;100.00;100388.75;3056578;19;19922;-50
2022/10/23 04:11:32;;;;;;;;;;;;;;;13.92;100.00;100374.38;3057931;19;20222;-50
2022/10/23 04:12:33;;;;;;;;;;;;;;;13.88;100.00;100384.50;3057857;19;20349;-50
2022/10/23 04:13:38;;;;;;;;;;;;;;;13.84;100.00;100382.16;3057688;19;19922;-50
2022/10/23 04:14:42;;;;;;;;;;;;;;;13.76;100.00;100388.13;3057838;19;19923;-50
2022/10/23 04:15:48;;;;;;;;;;;;;;;13.72;100.00;100383.97;3057740;19;19935;-50
2022/10/23 04:16:53;;;;;;;;;;;;;;;13.63;100.00;100385.53;3057759;19;20371;-50
2022/10/23 04:17:55;;;;;;;;;;;;;;;13.58;100.00;100386.84;3056823;19;20285;-50
2022/10/23 04:18:59;;;;;;;;;;;;;;;13.45;100.00;100386.03;3057234;19;20469;-50
2022/10/23 04:20:03;;;;;;;;;;;;;;;13.41;100.00;100379.19;3056783;19;19922;-50
2022/10/23 04:21:07;;;;;;;;;;;;;;;13.38;100.00;100385.66;3057323;19;20010;-50
2022/10/23 04:22:11;;;;;;;;;;;;;;;13.30;100.00;100386.22;3056998;19;19911;-50
2022/10/23 04:23:13;;;;;;;;;;;;;;;13.24;100.00;100392.03;3056662;19;19991;-50
2022/10/23 04:24:18;;;;;;;;;;;;;;;13.21;100.00;100384.22;3057699;19;20007;-50
2022/10/23 04:25:22;;;;;;;;;;;;;;;13.17;100.00;100388.09;3057123;19;19990;-50
2022/10/23 04:26:24;;;;;;;;;;;;;;;13.12;100.00;100384.03;3057022;19;19922;-50
2022/10/23 04:27:29;;;;;;;;;;;;;;;13.05;100.00;100378.25;3056801;19;20386;-50
2022/10/23 04:28:30;;;;;;;;;;;;;;;13.02;100.00;100381.19;3057624;19;19918;-50
2022/10/23 04:29:35;;;;;;;;;;;;;;;12.99;100.00;100382.25;3056410;19;19934;-50
2022/10/23 04:30:37;;;;;;;;;;;;;;;13.01;100.00;100375.94;3055970;19;19951;-49
2022/10/23 04:31:42;;;;;;;;;;;;;;;13.04;100.00;100376.53;3056776;19;19919;-50
2022/10/23 04:32:44;;;;;;;;;;;;;;;13.04;100.00;100384.56;3057002;19;19922;-50
2022/10/23 04:33:48;;;;;;;;;;;;;;;13.02;100.00;100367.78;3056372;19;19923;-50
2022/10/23 04:35:05;;;;;;;;;;;;;;;13.13;100.00;100375.03;3056893;19;20421;-50
2022/10/23 04:36:07;;;;;;;;;;;;;;;13.17;100.00;100372.00;3056435;19;19918;-49
2022/10/23 04:37:12;;;;;;;;;;;;;;;13.21;100.00;100373.50;3056743;19;20279;-50
2022/10/23 04:38:14;;;;;;;;;;;;;;;13.25;100.00;100380.34;3056478;19;20251;-50
2022/10/23 04:39:18;;;;;;;;;;;;;;;13.30;100.00;100374.63;3057740;19;20447;-50
2022/10/23 04:40:20;;;;;;;;;;;;;;;13.32;100.00;100365.53;3056351;19;20029;-50
2022/10/23 04:41:26;;;;;;;;;;;;;;;13.37;100.00;100367.00;3056726;19;19918;-50
2022/10/23 04:42:30;;;;;;;;;;;;;;;13.41;100.00;100363.09;3056406;19;19954;-50
2022/10/23 04:43:35;;;;;;;;;;;;;;;13.45;100.00;100367.28;3055698;19;20318;-50
2022/10/23 04:44:40;;;;;;;;;;;;;;;13.49;100.00;100366.09;3056226;19;19919;-50
2022/10/23 04:45:41;;;;;;;;;;;;;;;13.50;100.00;100363.28;3056669;19;19931;-50
2022/10/23 04:46:46;;;;;;;;;;;;;;;13.54;100.00;100371.94;3056621;19;20388;-50
2022/10/23 04:47:48;;;;;;;;;;;;;;;13.56;100.00;100367.31;3057791;19;19940;-50
2022/10/23 04:48:53;;;;;;;;;;;;;;;13.58;100.00;100365.38;3056048;19;20314;-50
2022/10/23 04:50:01;;;;;;;;;;;;;;;13.58;100.00;100374.28;3055797;19;19918;-50
2022/10/23 04:51:23;;;;;;;;;;;;;;;13.61;100.00;100375.88;3052139;19;19990;-50
2022/10/23 04:52:30;;;;;;;;;;;;;;;13.63;100.00;100380.16;3054623;19;19919;-50
2022/10/23 04:53:43;;;;;;;;;;;;;;;13.66;100.00;100379.06;3052549;19;19923;-50
2022/10/23 04:54:55;;;;;;;;;;;;;;;13.68;100.00;100382.47;3053602;19;20349;-50
2022/10/23 04:56:17;;;;;;;;;;;;;;;13.70;100.00;100380.53;3056284;19;20488;-50
2022/10/23 04:57:23;;;;;;;;;;;;;;;13.70;100.00;100384.06;3056379;19;19922;-50
2022/10/23 04:58:35;;;;;;;;;;;;;;;13.74;100.00;100382.03;3055190;19;19923;-51
2022/10/23 04:59:37;;;;;;;;;;;;;;;13.72;100.00;100378.59;3055695;19;20333;-50
2022/10/23 05:00:42;;;;;;;;;;;;;;;13.75;100.00;100383.75;3055092;19;19922;-50
2022/10/23 05:01:43;;;;;;;;;;;;;;;13.74;100.00;100386.53;3057702;19;19927;-50
2022/10/23 05:02:49;;;;;;;;;;;;;;;13.76;100.00;100389.97;3055599;19;19923;-50
2022/10/23 05:03:52;;;;;;;;;;;;;;;13.76;100.00;100393.50;3056348;19;19915;-50
2022/10/23 05:04:57;;;;;;;;;;;;;;;13.74;100.00;100397.25;3056387;19;20303;-50
2022/10/23 05:06:26;;;;;;;;;;;;;;;13.72;100.00;100392.00;3056241;19;20392;-50
2022/10/23 05:07:53;;;;;;;;;;;;;;;13.75;100.00;100407.88;3056117;19;20326;-50
2022/10/23 05:09:18;;;;;;;;;;;;;;;13.76;100.00;100398.00;3055184;19;19915;-50
2022/10/23 05:10:40;;;;;;;;;;;;;;;13.77;100.00;100397.84;3055499;19;19942;-50
2022/10/23 05:11:51;;;;;;;;;;;;;;;13.77;100.00;100395.19;3056170;19;19932;-50
2022/10/23 05:12:53;;;;;;;;;;;;;;;13.77;100.00;100408.59;3056331;19;19927;-50
2022/10/23 05:13:57;;;;;;;;;;;;;;;13.76;100.00;100406.91;3056299;19;20261;-50
2022/10/23 05:15:01;;;;;;;;;;;;;;;13.77;100.00;100408.59;3056148;19;19922;-50
2022/10/23 05:16:05;;;;;;;;;;;;;;;13.76;100.00;100414.09;3056296;19;19919;-50
2022/10/23 05:17:26;;;;;;;;;;;;;;;13.76;100.00;100417.63;3056374;19;20270;-50
2022/10/23 05:18:34;;;;;;;;;;;;;;;13.76;100.00;100416.78;3055289;19;19918;-50
2022/10/23 05:19:40;;;;;;;;;;;;;;;13.74;100.00;100419.56;3057854;19;20396;-50
2022/10/23 05:20:45;;;;;;;;;;;;;;;13.74;100.00;100408.84;3054547;19;19933;-50
2022/10/23 05:21:47;;;;;;;;;;;;;;;13.70;100.00;100418.94;3057536;19;19911;-50
2022/10/23 05:22:51;;;;;;;;;;;;;;;13.72;100.00;100426.88;3056047;19;19926;-50
2022/10/23 05:23:57;;;;;;;;;;;;;;;13.69;100.00;100416.38;3056511;19;19923;-50
2022/10/23 05:25:31;;;;;;;;;;;;;;;13.69;100.00;100422.59;3056282;19;19996;-50
2022/10/23 05:26:43;;;;;;;;;;;;;;;13.72;100.00;100431.38;3056226;19;19947;-51
2022/10/23 05:27:48;;;;;;;;;;;;;;;13.77;100.00;100430.03;3056382;19;19950;-50
2022/10/23 05:28:50;;;;;;;;;;;;;;;13.72;100.00;100420.66;3056129;19;19934;-50
2022/10/23 05:29:55;;;;;;;;;;;;;;;13.70;100.00;100423.44;3056559;19;19930;-50
2022/10/23 05:31:03;;;;;;;;;;;;;;;13.69;100.00;100427.09;3056213;19;19919;-50
2022/10/23 05:32:08;;;;;;;;;;;;;;;13.71;100.00;100430.53;3055568;19;20319;-50
2022/10/23 05:33:11;;;;;;;;;;;;;;;13.73;100.00;100427.72;3057083;19;20418;-50
2022/10/23 05:34:19;;;;;;;;;;;;;;;13.70;100.00;100428.81;3055852;19;19926;-51
2022/10/23 05:35:21;;;;;;;;;;;;;;;13.69;100.00;100427.97;3057016;19;20019;-49
2022/10/23 05:36:27;;;;;;;;;;;;;;;13.73;100.00;100439.31;3055789;19;19926;-49